Terminal Aerodrome Forecast
Issued by NWS Newport/Morehead City, NC

Home | Current Version | Previous Version | Text Only | Print | Product List | Glossary Off
Versions: 1 2 3 4 5 6 7 8 9 10 11 12 13

427
FTUS42 KMHX 092109 AAA
TAFEWN
TAF AMD
KEWN 092109Z 0921/1018 26014G21KT P6SM SCT050 BKN080
     FM100000 26008KT P6SM SCT050=

USA.gov is the U.S. government's official web portal to all federal, state and local government web resources and services.